sensor_id;sensor_type;location;lat;lon;timestamp;temperature;humidity
25991;DHT22;13779;-33.886;151.198;2024-02-14T00:00:57;27.40;99.90
25991;DHT22;13779;-33.886;151.198;2024-02-14T00:03:27;27.50;99.90
25991;DHT22;13779;-33.886;151.198;2024-02-14T00:05:57;27.50;99.90
25991;DHT22;13779;-33.886;151.198;2024-02-14T00:08:26;27.60;99.90
25991;DHT22;13779;-33.886;151.198;2024-02-14T00:10:59;27.60;99.90
25991;DHT22;13779;-33.886;151.198;2024-02-14T00:13:29;27.70;99.90
25991;DHT22;13779;-33.886;151.198;2024-02-14T00:16:01;27.60;99.90
25991;DHT22;13779;-33.886;151.198;2024-02-14T00:18:31;27.60;99.90
25991;DHT22;13779;-33.886;151.198;2024-02-14T00:21:01;27.60;99.90
25991;DHT22;13779;-33.886;151.198;2024-02-14T00:23:30;27.50;99.90
25991;DHT22;13779;-33.886;151.198;2024-02-14T00:26:00;27.60;99.90
25991;DHT22;13779;-33.886;151.198;2024-02-14T00:28:29;27.70;99.90
25991;DHT22;13779;-33.886;151.198;2024-02-14T00:30:59;27.70;99.90
25991;DHT22;13779;-33.886;151.198;2024-02-14T00:33:28;27.90;99.90
25991;DHT22;13779;-33.886;151.198;2024-02-14T00:35:58;28.00;99.90
25991;DHT22;13779;-33.886;151.198;2024-02-14T00:38:28;28.10;99.90
25991;DHT22;13779;-33.886;151.198;2024-02-14T00:40:58;28.20;99.90
25991;DHT22;13779;-33.886;151.198;2024-02-14T00:43:27;28.40;99.90
25991;DHT22;13779;-33.886;151.198;2024-02-14T00:45:57;28.40;99.90
25991;DHT22;13779;-33.886;151.198;2024-02-14T00:48:28;28.50;99.90
25991;DHT22;13779;-33.886;151.198;2024-02-14T00:50:57;28.50;99.90
25991;DHT22;13779;-33.886;151.198;2024-02-14T00:53:28;28.50;99.90
25991;DHT22;13779;-33.886;151.198;2024-02-14T00:55:57;28.50;99.90
25991;DHT22;13779;-33.886;151.198;2024-02-14T00:58:27;28.40;99.90
25991;DHT22;13779;-33.886;151.198;2024-02-14T01:00:56;28.30;99.90
25991;DHT22;13779;-33.886;151.198;2024-02-14T01:03:26;28.30;99.90
25991;DHT22;13779;-33.886;151.198;2024-02-14T01:05:55;28.20;99.90
25991;DHT22;13779;-33.886;151.198;2024-02-14T01:08:25;28.10;99.90
25991;DHT22;13779;-33.886;151.198;2024-02-14T01:10:54;28.30;99.90
25991;DHT22;13779;-33.886;151.198;2024-02-14T01:13:24;28.30;99.90
25991;DHT22;13779;-33.886;151.198;2024-02-14T01:15:54;28.30;99.90
25991;DHT22;13779;-33.886;151.198;2024-02-14T01:18:23;28.30;99.90
25991;DHT22;13779;-33.886;151.198;2024-02-14T01:20:53;28.30;99.90
25991;DHT22;13779;-33.886;151.198;2024-02-14T01:23:22;28.40;99.90
25991;DHT22;13779;-33.886;151.198;2024-02-14T01:25:52;28.40;99.90
25991;DHT22;13779;-33.886;151.198;2024-02-14T01:28:23;28.10;99.90
25991;DHT22;13779;-33.886;151.198;2024-02-14T01:30:53;28.10;99.90
25991;DHT22;13779;-33.886;151.198;2024-02-14T01:33:23;28.10;99.90
25991;DHT22;13779;-33.886;151.198;2024-02-14T01:35:52;27.90;99.90
25991;DHT22;13779;-33.886;151.198;2024-02-14T01:38:22;27.90;99.90
25991;DHT22;13779;-33.886;151.198;2024-02-14T01:40:51;27.70;99.90
25991;DHT22;13779;-33.886;151.198;2024-02-14T01:43:22;27.70;99.90
25991;DHT22;13779;-33.886;151.198;2024-02-14T01:45:51;27.60;99.90
25991;DHT22;13779;-33.886;151.198;2024-02-14T01:48:20;27.60;99.90
25991;DHT22;13779;-33.886;151.198;2024-02-14T01:50:50;27.60;99.90
25991;DHT22;13779;-33.886;151.198;2024-02-14T01:53:20;27.60;99.90
25991;DHT22;13779;-33.886;151.198;2024-02-14T01:55:50;27.70;99.90
25991;DHT22;13779;-33.886;151.198;2024-02-14T01:58:20;27.80;99.90
25991;DHT22;13779;-33.886;151.198;2024-02-14T02:00:50;27.90;99.90
25991;DHT22;13779;-33.886;151.198;2024-02-14T02:03:25;27.90;99.90
25991;DHT22;13779;-33.886;151.198;2024-02-14T02:05:55;27.70;99.90
25991;DHT22;13779;-33.886;151.198;2024-02-14T02:08:26;27.60;99.90
25991;DHT22;13779;-33.886;151.198;2024-02-14T02:10:56;27.40;99.90
25991;DHT22;13779;-33.886;151.198;2024-02-14T02:13:26;27.20;99.90
25991;DHT22;13779;-33.886;151.198;2024-02-14T02:15:55;27.10;99.90
25991;DHT22;13779;-33.886;151.198;2024-02-14T02:18:25;27.10;99.90
25991;DHT22;13779;-33.886;151.198;2024-02-14T02:20:55;26.90;99.90
25991;DHT22;13779;-33.886;151.198;2024-02-14T02:23:25;26.90;99.90
25991;DHT22;13779;-33.886;151.198;2024-02-14T02:25:54;26.90;99.90
25991;DHT22;13779;-33.886;151.198;2024-02-14T02:28:24;26.90;99.90
25991;DHT22;13779;-33.886;151.198;2024-02-14T02:30:53;26.80;99.90
25991;DHT22;13779;-33.886;151.198;2024-02-14T02:33:24;26.70;99.90
25991;DHT22;13779;-33.886;151.198;2024-02-14T02:35:55;26.70;99.90
25991;DHT22;13779;-33.886;151.198;2024-02-14T02:38:24;26.80;99.90
25991;DHT22;13779;-33.886;151.198;2024-02-14T02:40:54;26.80;99.90
25991;DHT22;13779;-33.886;151.198;2024-02-14T02:43:23;26.80;99.90
25991;DHT22;13779;-33.886;151.198;2024-02-14T02:45:54;26.90;99.90
25991;DHT22;13779;-33.886;151.198;2024-02-14T02:48:23;26.80;99.90
25991;DHT22;13779;-33.886;151.198;2024-02-14T02:50:53;26.90;99.90
25991;DHT22;13779;-33.886;151.198;2024-02-14T02:53:23;26.90;99.90
25991;DHT22;13779;-33.886;151.198;2024-02-14T02:55:52;26.80;99.90
25991;DHT22;13779;-33.886;151.198;2024-02-14T02:58:23;26.80;99.90
25991;DHT22;13779;-33.886;151.198;2024-02-14T03:00:52;26.70;99.90
25991;DHT22;13779;-33.886;151.198;2024-02-14T03:03:24;26.70;99.90
25991;DHT22;13779;-33.886;151.198;2024-02-14T03:05:55;26.60;99.90
25991;DHT22;13779;-33.886;151.198;2024-02-14T03:08:25;26.60;99.90
25991;DHT22;13779;-33.886;151.198;2024-02-14T03:10:55;26.60;99.90
25991;DHT22;13779;-33.886;151.198;2024-02-14T03:13:24;26.50;99.90
25991;DHT22;13779;-33.886;151.198;2024-02-14T03:15:55;26.40;99.90
25991;DHT22;13779;-33.886;151.198;2024-02-14T03:18:27;26.40;99.90
25991;DHT22;13779;-33.886;151.198;2024-02-14T03:20:56;26.30;99.90
25991;DHT22;13779;-33.886;151.198;2024-02-14T03:23:27;26.30;99.90
25991;DHT22;13779;-33.886;151.198;2024-02-14T03:25:56;26.50;99.90
25991;DHT22;13779;-33.886;151.198;2024-02-14T03:28:26;26.50;99.90
25991;DHT22;13779;-33.886;151.198;2024-02-14T03:30:56;26.50;99.90
25991;DHT22;13779;-33.886;151.198;2024-02-14T03:33:26;26.50;99.90
25991;DHT22;13779;-33.886;151.198;2024-02-14T03:35:57;26.50;99.90
25991;DHT22;13779;-33.886;151.198;2024-02-14T03:38:27;26.60;99.90
25991;DHT22;13779;-33.886;151.198;2024-02-14T03:40:58;26.60;99.90
25991;DHT22;13779;-33.886;151.198;2024-02-14T03:43:27;26.60;99.90
25991;DHT22;13779;-33.886;151.198;2024-02-14T03:45:57;26.60;99.90
25991;DHT22;13779;-33.886;151.198;2024-02-14T03:48:26;26.50;99.90
25991;DHT22;13779;-33.886;151.198;2024-02-14T03:50:56;26.50;99.90
25991;DHT22;13779;-33.886;151.198;2024-02-14T03:53:26;26.40;99.90
25991;DHT22;13779;-33.886;151.198;2024-02-14T03:55:55;26.20;99.90
25991;DHT22;13779;-33.886;151.198;2024-02-14T03:58:25;26.10;99.90
25991;DHT22;13779;-33.886;151.198;2024-02-14T04:00:54;26.10;99.90
25991;DHT22;13779;-33.886;151.198;2024-02-14T04:03:24;25.90;99.90
25991;DHT22;13779;-33.886;151.198;2024-02-14T04:05:54;25.80;99.90
25991;DHT22;13779;-33.886;151.198;2024-02-14T04:08:23;25.70;99.90
25991;DHT22;13779;-33.886;151.198;2024-02-14T04:10:53;25.70;99.90
25991;DHT22;13779;-33.886;151.198;2024-02-14T04:13:25;25.60;99.90
25991;DHT22;13779;-33.886;151.198;2024-02-14T04:15:55;25.70;99.90
25991;DHT22;13779;-33.886;151.198;2024-02-14T04:18:24;25.70;99.90
25991;DHT22;13779;-33.886;151.198;2024-02-14T04:20:54;25.70;99.90
25991;DHT22;13779;-33.886;151.198;2024-02-14T04:23:24;25.70;99.90
25991;DHT22;13779;-33.886;151.198;2024-02-14T04:25:54;25.70;99.90
25991;DHT22;13779;-33.886;151.198;2024-02-14T04:28:24;25.70;99.90
25991;DHT22;13779;-33.886;151.198;2024-02-14T04:30:53;25.70;99.90
25991;DHT22;13779;-33.886;151.198;2024-02-14T04:33:24;25.50;99.90
25991;DHT22;13779;-33.886;151.198;2024-02-14T04:35:54;25.50;99.90
25991;DHT22;13779;-33.886;151.198;2024-02-14T04:38:24;25.40;99.90
25991;DHT22;13779;-33.886;151.198;2024-02-14T04:40:53;25.40;99.90
25991;DHT22;13779;-33.886;151.198;2024-02-14T04:43:25;25.40;99.90
25991;DHT22;13779;-33.886;151.198;2024-02-14T04:45:55;25.40;99.90
25991;DHT22;13779;-33.886;151.198;2024-02-14T04:48:24;25.30;99.90
25991;DHT22;13779;-33.886;151.198;2024-02-14T04:50:57;25.20;99.90
25991;DHT22;13779;-33.886;151.198;2024-02-14T04:53:29;25.20;99.90
25991;DHT22;13779;-33.886;151.198;2024-02-14T04:55:59;25.20;99.90
25991;DHT22;13779;-33.886;151.198;2024-02-14T04:58:28;25.20;99.90
25991;DHT22;13779;-33.886;151.198;2024-02-14T05:00:58;25.10;99.90
25991;DHT22;13779;-33.886;151.198;2024-02-14T05:03:27;25.20;99.90
25991;DHT22;13779;-33.886;151.198;2024-02-14T05:05:57;25.10;99.90
25991;DHT22;13779;-33.886;151.198;2024-02-14T05:08:31;25.10;99.90
25991;DHT22;13779;-33.886;151.198;2024-02-14T05:11:01;25.10;99.90
25991;DHT22;13779;-33.886;151.198;2024-02-14T05:13:30;25.20;99.90
25991;DHT22;13779;-33.886;151.198;2024-02-14T05:16:03;25.30;99.90
25991;DHT22;13779;-33.886;151.198;2024-02-14T05:18:33;25.20;99.90
25991;DHT22;13779;-33.886;151.198;2024-02-14T05:21:04;25.10;99.90
25991;DHT22;13779;-33.886;151.198;2024-02-14T05:23:34;25.00;99.90
25991;DHT22;13779;-33.886;151.198;2024-02-14T05:26:08;25.00;99.90
25991;DHT22;13779;-33.886;151.198;2024-02-14T05:28:38;25.00;99.90
25991;DHT22;13779;-33.886;151.198;2024-02-14T05:31:08;24.90;99.90
25991;DHT22;13779;-33.886;151.198;2024-02-14T05:33:37;24.90;99.90
25991;DHT22;13779;-33.886;151.198;2024-02-14T05:36:07;24.90;99.90
25991;DHT22;13779;-33.886;151.198;2024-02-14T05:38:37;24.90;99.90
25991;DHT22;13779;-33.886;151.198;2024-02-14T05:41:07;24.90;99.90
25991;DHT22;13779;-33.886;151.198;2024-02-14T05:43:37;24.90;99.90
25991;DHT22;13779;-33.886;151.198;2024-02-14T05:46:07;24.80;99.90
25991;DHT22;13779;-33.886;151.198;2024-02-14T05:48:38;24.80;99.90
25991;DHT22;13779;-33.886;151.198;2024-02-14T05:51:09;24.80;99.90
25991;DHT22;13779;-33.886;151.198;2024-02-14T05:53:39;24.70;99.90
25991;DHT22;13779;-33.886;151.198;2024-02-14T05:56:08;24.50;99.90
25991;DHT22;13779;-33.886;151.198;2024-02-14T05:58:38;24.40;99.90
25991;DHT22;13779;-33.886;151.198;2024-02-14T06:01:09;24.30;99.90
25991;DHT22;13779;-33.886;151.198;2024-02-14T06:03:40;24.20;99.90
25991;DHT22;13779;-33.886;151.198;2024-02-14T06:06:10;24.10;99.90
25991;DHT22;13779;-33.886;151.198;2024-02-14T06:08:40;24.10;99.90
25991;DHT22;13779;-33.886;151.198;2024-02-14T06:11:10;24.10;99.90
25991;DHT22;13779;-33.886;151.198;2024-02-14T06:13:41;24.00;99.90
25991;DHT22;13779;-33.886;151.198;2024-02-14T06:16:11;24.00;99.90
25991;DHT22;13779;-33.886;151.198;2024-02-14T06:18:41;24.00;99.90
25991;DHT22;13779;-33.886;151.198;2024-02-14T06:21:11;24.00;99.90
25991;DHT22;13779;-33.886;151.198;2024-02-14T06:23:41;24.10;99.90
25991;DHT22;13779;-33.886;151.198;2024-02-14T06:26:11;24.00;99.90
25991;DHT22;13779;-33.886;151.198;2024-02-14T06:28:41;24.00;99.90
25991;DHT22;13779;-33.886;151.198;2024-02-14T06:31:11;23.90;99.90
25991;DHT22;13779;-33.886;151.198;2024-02-14T06:33:40;23.80;99.90
25991;DHT22;13779;-33.886;151.198;2024-02-14T06:36:10;23.80;99.90
25991;DHT22;13779;-33.886;151.198;2024-02-14T06:38:40;23.80;99.90
25991;DHT22;13779;-33.886;151.198;2024-02-14T06:41:10;23.70;99.90
25991;DHT22;13779;-33.886;151.198;2024-02-14T06:43:40;23.70;99.90
25991;DHT22;13779;-33.886;151.198;2024-02-14T06:46:10;23.70;99.90
25991;DHT22;13779;-33.886;151.198;2024-02-14T06:48:39;23.70;99.90
25991;DHT22;13779;-33.886;151.198;2024-02-14T06:51:09;23.60;99.90
25991;DHT22;13779;-33.886;151.198;2024-02-14T06:53:39;23.60;99.90
25991;DHT22;13779;-33.886;151.198;2024-02-14T06:56:09;23.60;99.90
25991;DHT22;13779;-33.886;151.198;2024-02-14T06:58:39;23.60;99.90
25991;DHT22;13779;-33.886;151.198;2024-02-14T07:01:08;23.50;99.90
25991;DHT22;13779;-33.886;151.198;2024-02-14T07:03:41;23.50;99.90
25991;DHT22;13779;-33.886;151.198;2024-02-14T07:06:11;23.50;99.90
25991;DHT22;13779;-33.886;151.198;2024-02-14T07:08:41;23.40;99.90
25991;DHT22;13779;-33.886;151.198;2024-02-14T07:11:10;23.30;99.90
25991;DHT22;13779;-33.886;151.198;2024-02-14T07:13:40;23.30;99.90
25991;DHT22;13779;-33.886;151.198;2024-02-14T07:16:10;23.30;99.90
25991;DHT22;13779;-33.886;151.198;2024-02-14T07:18:40;23.30;99.90
25991;DHT22;13779;-33.886;151.198;2024-02-14T07:21:10;23.20;99.90
25991;DHT22;13779;-33.886;151.198;2024-02-14T07:23:40;23.10;99.90
25991;DHT22;13779;-33.886;151.198;2024-02-14T07:26:09;23.00;99.90
25991;DHT22;13779;-33.886;151.198;2024-02-14T07:28:39;23.00;99.90
25991;DHT22;13779;-33.886;151.198;2024-02-14T07:31:10;22.90;99.90
25991;DHT22;13779;-33.886;151.198;2024-02-14T07:33:40;22.80;99.90
25991;DHT22;13779;-33.886;151.198;2024-02-14T07:36:10;22.70;99.90
25991;DHT22;13779;-33.886;151.198;2024-02-14T07:38:40;22.70;99.90
25991;DHT22;13779;-33.886;151.198;2024-02-14T07:41:11;22.70;99.90
25991;DHT22;13779;-33.886;151.198;2024-02-14T07:43:41;22.60;99.90
25991;DHT22;13779;-33.886;151.198;2024-02-14T07:46:11;22.60;99.90
25991;DHT22;13779;-33.886;151.198;2024-02-14T07:48:41;22.50;99.90
25991;DHT22;13779;-33.886;151.198;2024-02-14T07:51:11;22.50;99.90
25991;DHT22;13779;-33.886;151.198;2024-02-14T07:53:40;22.50;99.90
25991;DHT22;13779;-33.886;151.198;2024-02-14T07:56:10;22.40;99.90
25991;DHT22;13779;-33.886;151.198;2024-02-14T07:58:40;22.40;99.90
25991;DHT22;13779;-33.886;151.198;2024-02-14T08:01:10;22.50;99.90
25991;DHT22;13779;-33.886;151.198;2024-02-14T08:03:40;22.40;99.90
25991;DHT22;13779;-33.886;151.198;2024-02-14T08:06:10;22.40;99.90
25991;DHT22;13779;-33.886;151.198;2024-02-14T08:08:39;22.40;99.90
25991;DHT22;13779;-33.886;151.198;2024-02-14T08:11:09;22.40;99.90
25991;DHT22;13779;-33.886;151.198;2024-02-14T08:13:39;22.40;99.90
25991;DHT22;13779;-33.886;151.198;2024-02-14T08:16:09;22.40;99.90
25991;DHT22;13779;-33.886;151.198;2024-02-14T08:18:39;22.30;99.90
25991;DHT22;13779;-33.886;151.198;2024-02-14T08:21:13;22.30;99.90
25991;DHT22;13779;-33.886;151.198;2024-02-14T08:23:43;22.30;99.90
25991;DHT22;13779;-33.886;151.198;2024-02-14T08:26:13;22.30;99.90
25991;DHT22;13779;-33.886;151.198;2024-02-14T08:28:45;22.30;99.90
25991;DHT22;13779;-33.886;151.198;2024-02-14T08:31:16;22.30;99.90
25991;DHT22;13779;-33.886;151.198;2024-02-14T08:33:46;22.20;99.90
25991;DHT22;13779;-33.886;151.198;2024-02-14T08:36:16;22.20;99.90
25991;DHT22;13779;-33.886;151.198;2024-02-14T08:38:48;22.10;99.90
25991;DHT22;13779;-33.886;151.198;2024-02-14T08:41:18;22.10;99.90
25991;DHT22;13779;-33.886;151.198;2024-02-14T08:43:48;22.10;99.90
25991;DHT22;13779;-33.886;151.198;2024-02-14T08:46:17;22.20;99.90
25991;DHT22;13779;-33.886;151.198;2024-02-14T08:48:47;22.10;99.90
25991;DHT22;13779;-33.886;151.198;2024-02-14T08:51:18;22.10;99.90
25991;DHT22;13779;-33.886;151.198;2024-02-14T08:53:51;22.10;99.90
25991;DHT22;13779;-33.886;151.198;2024-02-14T08:56:24;22.00;99.90
25991;DHT22;13779;-33.886;151.198;2024-02-14T08:58:54;22.10;99.90
25991;DHT22;13779;-33.886;151.198;2024-02-14T09:01:24;22.10;99.90
25991;DHT22;13779;-33.886;151.198;2024-02-14T09:03:55;22.10;99.90
25991;DHT22;13779;-33.886;151.198;2024-02-14T09:06:25;22.10;99.90
25991;DHT22;13779;-33.886;151.198;2024-02-14T09:08:58;22.10;99.90
25991;DHT22;13779;-33.886;151.198;2024-02-14T09:11:28;22.00;99.90
25991;DHT22;13779;-33.886;151.198;2024-02-14T09:13:58;22.00;99.90
25991;DHT22;13779;-33.886;151.198;2024-02-14T09:16:33;22.00;99.90
25991;DHT22;13779;-33.886;151.198;2024-02-14T09:19:03;22.00;99.90
25991;DHT22;13779;-33.886;151.198;2024-02-14T09:21:36;22.00;99.90
25991;DHT22;13779;-33.886;151.198;2024-02-14T09:24:07;22.00;99.90
25991;DHT22;13779;-33.886;151.198;2024-02-14T09:26:37;21.90;99.90
25991;DHT22;13779;-33.886;151.198;2024-02-14T09:29:07;21.90;99.90
25991;DHT22;13779;-33.886;151.198;2024-02-14T09:31:37;22.00;99.90
25991;DHT22;13779;-33.886;151.198;2024-02-14T09:34:07;22.00;99.90
25991;DHT22;13779;-33.886;151.198;2024-02-14T09:36:38;21.90;99.90
25991;DHT22;13779;-33.886;151.198;2024-02-14T09:39:07;21.90;99.90
25991;DHT22;13779;-33.886;151.198;2024-02-14T09:41:37;21.80;99.90
25991;DHT22;13779;-33.886;151.198;2024-02-14T09:44:09;21.80;99.90
25991;DHT22;13779;-33.886;151.198;2024-02-14T09:46:39;21.80;99.90
25991;DHT22;13779;-33.886;151.198;2024-02-14T09:49:09;21.80;99.90
25991;DHT22;13779;-33.886;151.198;2024-02-14T09:51:40;21.80;99.90
25991;DHT22;13779;-33.886;151.198;2024-02-14T09:54:10;21.80;99.90
25991;DHT22;13779;-33.886;151.198;2024-02-14T09:56:40;21.80;99.90
25991;DHT22;13779;-33.886;151.198;2024-02-14T09:59:10;21.90;99.90
25991;DHT22;13779;-33.886;151.198;2024-02-14T10:01:39;21.90;99.90
25991;DHT22;13779;-33.886;151.198;2024-02-14T10:04:10;21.90;99.90
25991;DHT22;13779;-33.886;151.198;2024-02-14T10:06:39;21.90;99.90
25991;DHT22;13779;-33.886;151.198;2024-02-14T10:09:09;21.90;99.90
25991;DHT22;13779;-33.886;151.198;2024-02-14T10:11:39;21.80;99.90
25991;DHT22;13779;-33.886;151.198;2024-02-14T10:14:09;21.80;99.90
25991;DHT22;13779;-33.886;151.198;2024-02-14T10:16:41;21.80;99.90
25991;DHT22;13779;-33.886;151.198;2024-02-14T10:19:16;21.80;99.90
25991;DHT22;13779;-33.886;151.198;2024-02-14T10:21:59;21.80;99.90
25991;DHT22;13779;-33.886;151.198;2024-02-14T10:24:32;21.80;99.90
25991;DHT22;13779;-33.886;151.198;2024-02-14T10:27:05;21.80;99.90
25991;DHT22;13779;-33.886;151.198;2024-02-14T10:29:34;21.80;99.90
25991;DHT22;13779;-33.886;151.198;2024-02-14T10:32:04;21.80;99.90
25991;DHT22;13779;-33.886;151.198;2024-02-14T10:34:34;21.80;99.90
25991;DHT22;13779;-33.886;151.198;2024-02-14T10:37:06;21.80;99.90
25991;DHT22;13779;-33.886;151.198;2024-02-14T10:39:35;21.70;99.90
25991;DHT22;13779;-33.886;151.198;2024-02-14T10:42:07;21.70;99.90
25991;DHT22;13779;-33.886;151.198;2024-02-14T10:44:37;21.70;99.90
25991;DHT22;13779;-33.886;151.198;2024-02-14T10:47:08;21.60;99.90
25991;DHT22;13779;-33.886;151.198;2024-02-14T10:49:40;21.60;99.90
25991;DHT22;13779;-33.886;151.198;2024-02-14T10:52:11;21.60;99.90
25991;DHT22;13779;-33.886;151.198;2024-02-14T10:54:42;21.60;99.90
25991;DHT22;13779;-33.886;151.198;2024-02-14T10:57:12;21.60;99.90
25991;DHT22;13779;-33.886;151.198;2024-02-14T10:59:43;21.60;99.90
25991;DHT22;13779;-33.886;151.198;2024-02-14T11:02:13;21.60;99.90
25991;DHT22;13779;-33.886;151.198;2024-02-14T11:04:45;21.60;99.90
25991;DHT22;13779;-33.886;151.198;2024-02-14T11:07:16;21.60;99.90
25991;DHT22;13779;-33.886;151.198;2024-02-14T11:09:46;21.50;99.90
25991;DHT22;13779;-33.886;151.198;2024-02-14T11:12:16;21.50;99.90
25991;DHT22;13779;-33.886;151.198;2024-02-14T11:14:46;21.50;99.90
25991;DHT22;13779;-33.886;151.198;2024-02-14T11:17:18;21.50;99.90
25991;DHT22;13779;-33.886;151.198;2024-02-14T11:19:53;21.50;99.90
25991;DHT22;13779;-33.886;151.198;2024-02-14T11:22:23;21.60;99.90
25991;DHT22;13779;-33.886;151.198;2024-02-14T11:24:55;21.60;99.90
25991;DHT22;13779;-33.886;151.198;2024-02-14T11:27:25;21.60;99.90
25991;DHT22;13779;-33.886;151.198;2024-02-14T11:30:00;21.60;99.90
25991;DHT22;13779;-33.886;151.198;2024-02-14T11:32:32;21.60;99.90
25991;DHT22;13779;-33.886;151.198;2024-02-14T11:35:10;21.60;99.90
25991;DHT22;13779;-33.886;151.198;2024-02-14T11:37:41;21.70;99.90
25991;DHT22;13779;-33.886;151.198;2024-02-14T11:40:11;21.70;99.90
25991;DHT22;13779;-33.886;151.198;2024-02-14T11:42:41;21.70;99.90
25991;DHT22;13779;-33.886;151.198;2024-02-14T11:45:10;21.70;99.90
25991;DHT22;13779;-33.886;151.198;2024-02-14T11:47:40;21.80;99.90
25991;DHT22;13779;-33.886;151.198;2024-02-14T11:50:10;21.80;99.90
25991;DHT22;13779;-33.886;151.198;2024-02-14T11:52:40;21.80;99.90
25991;DHT22;13779;-33.886;151.198;2024-02-14T11:55:09;21.80;99.90
25991;DHT22;13779;-33.886;151.198;2024-02-14T11:57:41;21.70;99.90
25991;DHT22;13779;-33.886;151.198;2024-02-14T12:00:11;21.80;99.90
25991;DHT22;13779;-33.886;151.198;2024-02-14T12:02:41;21.70;99.90
25991;DHT22;13779;-33.886;151.198;2024-02-14T12:05:11;21.60;99.90
25991;DHT22;13779;-33.886;151.198;2024-02-14T12:07:43;21.50;99.90
25991;DHT22;13779;-33.886;151.198;2024-02-14T12:10:13;21.40;99.90
25991;DHT22;13779;-33.886;151.198;2024-02-14T12:12:45;21.50;99.90
25991;DHT22;13779;-33.886;151.198;2024-02-14T12:15:15;21.50;99.90
25991;DHT22;13779;-33.886;151.198;2024-02-14T12:17:45;21.50;99.90
25991;DHT22;13779;-33.886;151.198;2024-02-14T12:20:21;21.50;99.90
25991;DHT22;13779;-33.886;151.198;2024-02-14T12:22:50;21.50;99.90
25991;DHT22;13779;-33.886;151.198;2024-02-14T12:25:20;21.40;99.90
25991;DHT22;13779;-33.886;151.198;2024-02-14T12:27:50;21.30;99.90
25991;DHT22;13779;-33.886;151.198;2024-02-14T12:30:21;21.20;99.90
25991;DHT22;13779;-33.886;151.198;2024-02-14T12:32:58;21.20;99.90
25991;DHT22;13779;-33.886;151.198;2024-02-14T12:35:28;21.20;99.90
25991;DHT22;13779;-33.886;151.198;2024-02-14T12:37:58;21.20;99.90
25991;DHT22;13779;-33.886;151.198;2024-02-14T12:40:28;21.20;99.90
25991;DHT22;13779;-33.886;151.198;2024-02-14T12:42:58;21.20;99.90
25991;DHT22;13779;-33.886;151.198;2024-02-14T12:45:29;21.20;99.90
25991;DHT22;13779;-33.886;151.198;2024-02-14T12:47:58;21.20;99.90
25991;DHT22;13779;-33.886;151.198;2024-02-14T12:50:30;21.30;99.90
25991;DHT22;13779;-33.886;151.198;2024-02-14T12:53:03;21.30;99.90
25991;DHT22;13779;-33.886;151.198;2024-02-14T12:55:33;21.30;99.90
25991;DHT22;13779;-33.886;151.198;2024-02-14T12:58:03;21.40;99.90
25991;DHT22;13779;-33.886;151.198;2024-02-14T13:00:33;21.40;99.90
25991;DHT22;13779;-33.886;151.198;2024-02-14T13:03:03;21.40;99.90
25991;DHT22;13779;-33.886;151.198;2024-02-14T13:05:34;21.50;99.90
25991;DHT22;13779;-33.886;151.198;2024-02-14T13:08:04;21.60;99.90
25991;DHT22;13779;-33.886;151.198;2024-02-14T13:10:34;21.50;99.90
25991;DHT22;13779;-33.886;151.198;2024-02-14T13:13:04;21.40;99.90
25991;DHT22;13779;-33.886;151.198;2024-02-14T13:15:34;21.40;99.90
25991;DHT22;13779;-33.886;151.198;2024-02-14T13:18:05;21.40;99.90
25991;DHT22;13779;-33.886;151.198;2024-02-14T13:20:35;21.30;99.90
25991;DHT22;13779;-33.886;151.198;2024-02-14T13:23:06;21.40;99.90
25991;DHT22;13779;-33.886;151.198;2024-02-14T13:25:38;21.40;99.90
25991;DHT22;13779;-33.886;151.198;2024-02-14T13:28:08;21.40;99.90
25991;DHT22;13779;-33.886;151.198;2024-02-14T13:30:38;21.50;99.90
25991;DHT22;13779;-33.886;151.198;2024-02-14T13:33:08;21.60;99.90
25991;DHT22;13779;-33.886;151.198;2024-02-14T13:35:40;21.60;99.90
25991;DHT22;13779;-33.886;151.198;2024-02-14T13:38:10;21.70;99.90
25991;DHT22;13779;-33.886;151.198;2024-02-14T13:40:40;21.60;99.90
25991;DHT22;13779;-33.886;151.198;2024-02-14T13:43:10;21.60;99.90
25991;DHT22;13779;-33.886;151.198;2024-02-14T13:45:43;21.50;99.90
25991;DHT22;13779;-33.886;151.198;2024-02-14T13:48:13;21.50;99.90
25991;DHT22;13779;-33.886;151.198;2024-02-14T13:50:43;21.60;99.90
25991;DHT22;13779;-33.886;151.198;2024-02-14T13:53:13;21.60;99.90
25991;DHT22;13779;-33.886;151.198;2024-02-14T13:55:43;21.60;99.90
25991;DHT22;13779;-33.886;151.198;2024-02-14T13:58:12;21.70;99.90
25991;DHT22;13779;-33.886;151.198;2024-02-14T14:00:45;21.70;99.90
25991;DHT22;13779;-33.886;151.198;2024-02-14T14:03:15;21.70;99.90
25991;DHT22;13779;-33.886;151.198;2024-02-14T14:05:45;21.70;99.90
25991;DHT22;13779;-33.886;151.198;2024-02-14T14:08:15;21.70;99.90
25991;DHT22;13779;-33.886;151.198;2024-02-14T14:10:44;21.70;99.90
25991;DHT22;13779;-33.886;151.198;2024-02-14T14:13:14;21.70;99.90
25991;DHT22;13779;-33.886;151.198;2024-02-14T14:15:45;21.80;99.90
25991;DHT22;13779;-33.886;151.198;2024-02-14T14:18:14;21.70;99.90
25991;DHT22;13779;-33.886;151.198;2024-02-14T14:20:44;21.70;99.90
25991;DHT22;13779;-33.886;151.198;2024-02-14T14:23:14;21.70;99.90
25991;DHT22;13779;-33.886;151.198;2024-02-14T14:25:44;21.70;99.90
25991;DHT22;13779;-33.886;151.198;2024-02-14T14:28:14;21.70;99.90
25991;DHT22;13779;-33.886;151.198;2024-02-14T14:30:44;21.80;99.90
25991;DHT22;13779;-33.886;151.198;2024-02-14T14:33:14;21.80;99.90
25991;DHT22;13779;-33.886;151.198;2024-02-14T14:35:45;21.80;99.90
25991;DHT22;13779;-33.886;151.198;2024-02-14T14:38:15;21.90;99.90
25991;DHT22;13779;-33.886;151.198;2024-02-14T14:40:46;21.90;99.90
25991;DHT22;13779;-33.886;151.198;2024-02-14T14:43:15;21.90;99.90
25991;DHT22;13779;-33.886;151.198;2024-02-14T14:45:48;21.90;99.90
25991;DHT22;13779;-33.886;151.198;2024-02-14T14:48:18;21.90;99.90
25991;DHT22;13779;-33.886;151.198;2024-02-14T14:50:48;22.00;99.90
25991;DHT22;13779;-33.886;151.198;2024-02-14T14:53:18;22.00;99.90
25991;DHT22;13779;-33.886;151.198;2024-02-14T14:55:52;22.00;99.90
25991;DHT22;13779;-33.886;151.198;2024-02-14T14:58:22;22.10;99.90
25991;DHT22;13779;-33.886;151.198;2024-02-14T15:00:54;22.10;99.90
25991;DHT22;13779;-33.886;151.198;2024-02-14T15:03:24;22.10;99.90
25991;DHT22;13779;-33.886;151.198;2024-02-14T15:05:54;22.10;99.90